Time;durP1;ratioP1;P1;durP2;ratioP2;P2;SDS_P1;SDS_P2;PMS_P1;PMS_P2;Temp;Humidity;BMP_temperature;BMP_pressure;BME280_temperature;BME280_humidity;BME280_pressure;Samples;Min_cycle;Max_cycle;Signal;HPM_P1;HPM_P2
2023/01/06 00:01:52;;;;;;;2.20;1.20;;;;;;;9.49;100.00;153797.31;5005931;28;21034;-81
2023/01/06 00:04:37;;;;;;;2.27;1.20;;;;;;;9.50;100.00;153799.91;4994454;28;20597;-80
2023/01/06 00:07:22;;;;;;;1.90;1.53;;;;;;;9.60;100.00;153824.47;5007777;28;20470;-80
2023/01/06 00:10:08;;;;;;;1.93;1.33;;;;;;;9.57;100.00;153818.00;5013830;28;20531;-80
2023/01/06 00:12:54;;;;;;;2.97;1.57;;;;;;;9.55;100.00;153812.84;4993322;28;20447;-80
2023/01/06 00:15:40;;;;;;;2.30;1.80;;;;;;;9.54;100.00;153808.94;4994438;28;20458;-81
2023/01/06 00:18:26;;;;;;;2.70;1.30;;;;;;;9.56;100.00;153815.41;4994836;28;20525;-81
2023/01/06 00:21:12;;;;;;;1.93;1.10;;;;;;;9.53;100.00;153807.63;4992481;28;20455;-81
2023/01/06 00:23:57;;;;;;;2.00;1.20;;;;;;;9.56;100.00;153815.41;4992002;28;20791;-81
2023/01/06 00:26:43;;;;;;;1.77;1.43;;;;;;;9.58;100.00;153819.31;4995074;28;20490;-81
2023/01/06 00:29:28;;;;;;;1.80;1.40;;;;;;;9.57;100.00;153818.00;5013817;28;20425;-81
2023/01/06 00:32:15;;;;;;;1.87;1.50;;;;;;;9.53;100.00;153807.63;5005742;28;20441;-81
2023/01/06 00:35:00;;;;;;;3.20;1.40;;;;;;;9.53;100.00;153806.38;4974714;28;20593;-80
2023/01/06 00:37:45;;;;;;;1.80;1.23;;;;;;;9.52;100.00;153805.06;5008882;28;20853;-81
2023/01/06 00:40:31;;;;;;;1.83;1.40;;;;;;;9.52;100.00;153805.06;4998376;28;20895;-81
2023/01/06 00:43:17;;;;;;;1.67;1.30;;;;;;;9.52;100.00;153803.78;4975266;28;20466;-81
2023/01/06 00:46:03;;;;;;;1.50;1.20;;;;;;;9.53;100.00;153807.63;5004318;28;20553;-80
2023/01/06 00:48:50;;;;;;;2.00;1.20;;;;;;;9.51;100.00;153801.16;5001232;28;20952;-81
2023/01/06 00:51:36;;;;;;;2.00;1.60;;;;;;;9.52;100.00;153805.06;4992740;28;20505;-80
2023/01/06 00:54:23;;;;;;;2.03;1.20;;;;;;;9.51;100.00;153802.47;5015758;28;21082;-81
2023/01/06 00:57:09;;;;;;;1.60;0.97;;;;;;;9.51;100.00;153802.47;5007266;28;20488;-80
2023/01/06 00:59:54;;;;;;;3.23;1.17;;;;;;;9.53;100.00;153806.38;5003726;28;20441;-81
2023/01/06 01:02:39;;;;;;;1.97;1.03;;;;;;;9.48;100.00;153794.69;5002384;28;20827;-80
2023/01/06 01:05:26;;;;;;;1.57;0.90;;;;;;;9.46;100.00;153789.53;4983808;28;21030;-81
2023/01/06 01:08:11;;;;;;;2.20;1.13;;;;;;;9.46;100.00;153789.53;4999934;28;20433;-82
2023/01/06 01:11:02;;;;;;;1.57;1.00;;;;;;;9.44;100.00;153783.06;5012413;28;20451;-82
2023/01/06 01:13:48;;;;;;;1.57;1.17;;;;;;;9.43;100.00;153781.75;5002496;28;20836;-82
2023/01/06 01:16:33;;;;;;;1.33;1.00;;;;;;;9.45;100.00;153786.94;4992686;28;20446;-82
2023/01/06 01:19:19;;;;;;;1.97;1.33;;;;;;;9.46;100.00;153789.53;4993638;28;20903;-82
2023/01/06 01:22:06;;;;;;;1.77;1.23;;;;;;;9.46;100.00;153789.53;5001237;28;20441;-82
2023/01/06 01:24:51;;;;;;;2.00;1.30;;;;;;;9.39;100.00;153771.44;4988952;28;20449;-82
2023/01/06 01:27:36;;;;;;;2.37;1.50;;;;;;;9.34;100.00;153758.50;4992834;28;20879;-82
2023/01/06 01:30:22;;;;;;;2.00;1.50;;;;;;;9.33;100.00;153755.91;4992209;28;20964;-82
2023/01/06 01:33:07;;;;;;;5.20;2.70;;;;;;;9.30;100.00;153748.13;4994565;28;20925;-82
2023/01/06 01:35:53;;;;;;;1.70;1.20;;;;;;;9.23;100.00;153730.03;4992929;28;20633;-82
2023/01/06 01:38:39;;;;;;;2.73;1.30;;;;;;;9.20;100.00;153722.28;5011944;28;20466;-81
2023/01/06 01:41:25;;;;;;;2.10;1.63;;;;;;;9.18;100.00;153717.13;5004348;28;20838;-82
2023/01/06 01:44:49;;;;;;;2.40;1.57;;;;;;;9.13;100.00;153704.19;4999248;28;20443;-82
2023/01/06 01:47:53;;;;;;;2.50;1.40;;;;;;;9.09;100.00;153695.13;4991210;28;20458;-82
2023/01/06 01:50:42;;;;;;;2.30;1.60;;;;;;;9.06;100.00;153686.06;4986412;28;20457;-82
2023/01/06 01:53:30;;;;;;;3.23;2.10;;;;;;;9.07;100.00;153688.66;4994242;28;20468;-82
2023/01/06 01:56:20;;;;;;;2.47;2.03;;;;;;;9.06;100.00;153686.06;4992549;28;20454;-82
2023/01/06 01:59:09;;;;;;;2.10;1.90;;;;;;;9.09;100.00;153693.81;4996405;28;20473;-82
2023/01/06 02:01:55;;;;;;;2.30;1.70;;;;;;;9.03;100.00;153678.28;5005088;28;20453;-82
2023/01/06 02:04:42;;;;;;;3.67;2.23;;;;;;;9.02;100.00;153675.72;4973780;28;20443;-82
2023/01/06 02:07:29;;;;;;;6.00;1.63;;;;;;;9.02;100.00;153677.03;4999742;28;20473;-82
2023/01/06 02:10:17;;;;;;;1.77;1.20;;;;;;;9.02;100.00;153675.72;4972378;28;20878;-82
2023/01/06 02:13:04;;;;;;;2.10;1.70;;;;;;;9.03;100.00;153678.28;4998296;28;20824;-82
2023/01/06 02:15:53;;;;;;;1.50;1.30;;;;;;;9.04;100.00;153680.88;4986284;28;20961;-82
2023/01/06 02:18:49;;;;;;;2.30;1.70;;;;;;;9.06;100.00;153686.06;4994684;28;20453;-82
2023/01/06 02:21:46;;;;;;;3.77;2.20;;;;;;;9.06;100.00;153686.06;4990151;28;20520;-82
2023/01/06 02:24:57;;;;;;;2.17;1.47;;;;;;;9.08;100.00;153692.50;4979847;28;20466;-82
2023/01/06 02:28:18;;;;;;;3.43;1.77;;;;;;;9.09;100.00;153695.13;4995561;28;20470;-82
2023/01/06 02:31:38;;;;;;;2.53;2.10;;;;;;;9.10;100.00;153696.41;5001629;28;20900;-82
2023/01/06 02:34:31;;;;;;;2.03;1.40;;;;;;;9.10;100.00;153696.41;4994114;28;20539;-82
2023/01/06 02:37:28;;;;;;;2.90;1.83;;;;;;;9.10;100.00;153696.41;5011229;28;20460;-82
2023/01/06 02:40:24;;;;;;;2.60;1.40;;;;;;;9.12;100.00;153701.59;4987105;28;20442;-82
2023/01/06 02:43:14;;;;;;;2.07;1.60;;;;;;;9.11;100.00;153698.97;4998963;28;20451;-82
2023/01/06 02:46:07;;;;;;;2.00;1.40;;;;;;;9.12;100.00;153701.59;5004450;28;20442;-82
2023/01/06 02:49:01;;;;;;;2.47;1.70;;;;;;;9.13;100.00;153705.44;4989005;28;20447;-82
2023/01/06 02:51:51;;;;;;;1.90;1.63;;;;;;;9.16;100.00;153711.91;5003368;28;20444;-82
2023/01/06 02:54:41;;;;;;;9.77;3.07;;;;;;;9.16;100.00;153711.91;5010552;28;20430;-82
2023/01/06 02:57:28;;;;;;;2.73;2.17;;;;;;;9.16;100.00;153713.22;4995395;28;20553;-82
2023/01/06 03:00:19;;;;;;;2.20;1.90;;;;;;;9.17;100.00;153715.81;5020467;28;20465;-82
2023/01/06 03:03:09;;;;;;;1.70;1.47;;;;;;;9.17;100.00;153715.81;4992353;28;20448;-82
2023/01/06 03:05:59;;;;;;;1.80;1.60;;;;;;;9.19;100.00;153719.69;4997433;28;20844;-83
2023/01/06 03:08:46;;;;;;;2.00;1.53;;;;;;;9.18;100.00;153718.41;4972841;28;20442;-82
2023/01/06 03:11:32;;;;;;;1.60;1.30;;;;;;;9.19;100.00;153719.69;5014788;28;20906;-82
2023/01/06 03:14:23;;;;;;;2.67;2.00;;;;;;;9.21;100.00;153723.59;4989697;28;20465;-82
2023/01/06 03:17:09;;;;;;;2.00;1.40;;;;;;;9.20;100.00;153722.28;5008343;28;21247;-82
2023/01/06 03:19:54;;;;;;;2.27;1.80;;;;;;;9.20;100.00;153722.28;4995858;28;20462;-82
2023/01/06 03:22:41;;;;;;;2.40;1.60;;;;;;;9.22;100.00;153726.13;4990973;28;20437;-82
2023/01/06 03:25:26;;;;;;;1.90;1.70;;;;;;;9.21;100.00;153724.88;5004109;28;20453;-82
2023/01/06 03:28:12;;;;;;;2.27;1.60;;;;;;;9.21;100.00;153724.88;4997200;28;20501;-82
2023/01/06 03:31:06;;;;;;;2.17;1.50;;;;;;;9.22;100.00;153726.13;4995929;28;20488;-82
2023/01/06 03:33:56;;;;;;;1.93;1.70;;;;;;;9.21;100.00;153724.88;4997080;28;20529;-82
2023/01/06 03:36:50;;;;;;;1.73;1.30;;;;;;;9.20;100.00;153722.28;4995727;28;20966;-82
2023/01/06 03:39:42;;;;;;;2.93;1.77;;;;;;;9.18;100.00;153718.41;5001526;28;20486;-82
2023/01/06 03:45:42;;;;;;;2.87;1.63;;;;;;;9.13;100.00;153704.19;4996078;28;20454;-82
2023/01/06 03:48:42;;;;;;;3.17;2.50;;;;;;;9.08;100.00;153691.25;5001874;28;20469;-82
2023/01/06 03:51:40;;;;;;;2.40;2.20;;;;;;;9.06;100.00;153686.06;5000448;28;20457;-83
2023/01/06 03:54:41;;;;;;;2.00;1.80;;;;;;;9.01;100.00;153673.13;4993911;28;20456;-82
2023/01/06 03:57:31;;;;;;;2.70;1.87;;;;;;;8.96;100.00;153660.19;5002862;28;20549;-82
2023/01/06 04:00:20;;;;;;;2.13;1.60;;;;;;;8.91;100.00;153648.56;4990402;28;20498;-82
2023/01/06 04:03:14;;;;;;;2.30;1.97;;;;;;;8.83;100.00;153626.59;4995493;28;20458;-82
2023/01/06 04:06:02;;;;;;;2.20;1.70;;;;;;;8.82;100.00;153625.28;5002285;28;20449;-82
2023/01/06 04:08:47;;;;;;;2.90;1.97;;;;;;;8.80;100.00;153618.81;4997340;28;20860;-82
2023/01/06 04:14:37;;;;;;;2.13;1.70;;;;;;;8.71;100.00;153595.56;5015457;28;20436;-82
2023/01/06 04:17:22;;;;;;;1.73;1.37;;;;;;;8.68;100.00;153587.81;4999836;28;20809;-82
2023/01/06 04:20:10;;;;;;;2.20;1.73;;;;;;;8.66;100.00;153582.66;4992052;28;20453;-82
2023/01/06 04:22:57;;;;;;;2.40;2.10;;;;;;;8.66;100.00;153583.91;4999575;28;20453;-82
2023/01/06 04:25:42;;;;;;;2.60;1.70;;;;;;;8.63;100.00;153576.13;4994092;28;20445;-82
2023/01/06 04:28:34;;;;;;;1.73;1.47;;;;;;;8.63;100.00;153576.13;4992240;28;20471;-82
2023/01/06 04:31:19;;;;;;;1.83;1.57;;;;;;;8.62;100.00;153573.59;4999380;28;20460;-81
2023/01/06 04:34:07;;;;;;;2.63;1.40;;;;;;;8.63;100.00;153574.88;5010286;28;20460;-82
2023/01/06 04:36:53;;;;;;;2.07;1.60;;;;;;;8.63;100.00;153574.88;5004146;28;20445;-83
2023/01/06 04:39:38;;;;;;;2.07;1.70;;;;;;;8.60;100.00;153568.44;5003976;28;20796;-82
2023/01/06 04:42:24;;;;;;;2.40;1.87;;;;;;;8.58;100.00;153564.53;4997131;28;20409;-82
2023/01/06 04:45:11;;;;;;;2.13;1.93;;;;;;;8.55;100.00;153556.75;5016348;28;20452;-82
2023/01/06 04:47:56;;;;;;;3.13;1.80;;;;;;;8.54;100.00;153554.19;4996206;28;20466;-82
2023/01/06 04:50:42;;;;;;;2.03;1.40;;;;;;;8.51;100.00;153545.13;4996269;28;20430;-82
2023/01/06 04:53:27;;;;;;;2.40;1.80;;;;;;;8.46;100.00;153532.22;5000847;28;20442;-82
2023/01/06 04:56:13;;;;;;;1.93;1.30;;;;;;;8.40;100.00;153518.00;4993832;28;20605;-82
2023/01/06 04:58:58;;;;;;;2.50;1.90;;;;;;;8.36;100.00;153507.69;4997085;28;20445;-82
2023/01/06 05:01:45;;;;;;;3.40;1.73;;;;;;;8.36;100.00;153506.38;4996760;28;20487;-82
2023/01/06 05:04:30;;;;;;;1.77;1.57;;;;;;;8.29;100.00;153489.56;4995040;28;20788;-81
2023/01/06 05:07:15;;;;;;;2.90;1.90;;;;;;;8.28;100.00;153487.00;4994384;28;20453;-82
2023/01/06 05:10:01;;;;;;;2.17;1.93;;;;;;;8.26;100.00;153480.50;4995450;28;20518;-82
2023/01/06 05:12:46;;;;;;;3.50;2.97;;;;;;;8.25;100.00;153479.19;4984112;28;20968;-82
2023/01/06 05:15:32;;;;;;;2.57;2.20;;;;;;;8.26;100.00;153480.50;5005701;28;20519;-82
2023/01/06 05:18:18;;;;;;;3.63;1.87;;;;;;;8.23;100.00;153474.03;4994116;28;20434;-81
2023/01/06 05:21:04;;;;;;;2.73;1.73;;;;;;;8.23;100.00;153474.03;4992884;28;20441;-82
2023/01/06 05:23:49;;;;;;;2.00;1.77;;;;;;;8.23;100.00;153474.03;5000523;28;20460;-82
2023/01/06 05:26:35;;;;;;;2.93;1.77;;;;;;;8.25;100.00;153479.19;4995826;28;20509;-82
2023/01/06 05:29:20;;;;;;;2.50;1.63;;;;;;;8.26;100.00;153481.75;4994514;28;20467;-82
2023/01/06 05:32:05;;;;;;;3.80;2.37;;;;;;;8.27;100.00;153484.41;4993347;28;20534;-82
2023/01/06 05:34:52;;;;;;;2.13;1.83;;;;;;;8.30;100.00;153490.84;4998028;28;20481;-82
2023/01/06 05:37:37;;;;;;;1.97;1.70;;;;;;;8.31;100.00;153494.72;4990381;28;20445;-82
2023/01/06 05:40:23;;;;;;;1.87;1.60;;;;;;;8.33;100.00;153499.91;5004499;28;20465;-82
2023/01/06 05:43:09;;;;;;;2.63;2.00;;;;;;;8.37;100.00;153510.22;4986590;28;20436;-82
2023/01/06 05:45:55;;;;;;;2.40;1.73;;;;;;;8.40;100.00;153518.00;4993930;28;20436;-82
2023/01/06 05:48:40;;;;;;;2.20;1.77;;;;;;;8.45;100.00;153529.63;4988568;28;20477;-83
2023/01/06 05:51:27;;;;;;;2.20;1.70;;;;;;;8.52;100.00;153549.00;4980548;28;20452;-82
2023/01/06 05:54:14;;;;;;;2.40;1.93;;;;;;;8.53;100.00;153551.59;4993971;28;20426;-82
2023/01/06 05:56:59;;;;;;;2.67;1.83;;;;;;;8.54;100.00;153552.91;4997937;28;20452;-83
2023/01/06 05:59:44;;;;;;;2.17;1.83;;;;;;;8.54;100.00;153552.91;5001300;28;20583;-82
2023/01/06 06:02:30;;;;;;;2.37;1.87;;;;;;;8.55;100.00;153556.75;5012392;28;20460;-82
2023/01/06 06:05:15;;;;;;;1.93;1.67;;;;;;;8.55;100.00;153555.50;4978060;28;20472;-82
2023/01/06 06:08:02;;;;;;;2.33;2.13;;;;;;;8.61;100.00;153569.69;4983265;28;20474;-82
2023/01/06 06:10:48;;;;;;;2.40;1.70;;;;;;;8.62;100.00;153572.28;4993282;28;20467;-81
2023/01/06 06:13:34;;;;;;;2.10;1.70;;;;;;;8.64;100.00;153577.44;4980854;28;20439;-82
2023/01/06 06:16:20;;;;;;;3.03;1.57;;;;;;;8.63;100.00;153574.88;4986368;28;20958;-81
2023/01/06 06:19:06;;;;;;;2.63;1.80;;;;;;;8.62;100.00;153572.28;4981672;28;20453;-81
2023/01/06 06:21:52;;;;;;;2.53;2.00;;;;;;;8.64;100.00;153577.44;4982812;28;20442;-82
2023/01/06 06:24:39;;;;;;;2.27;1.93;;;;;;;8.63;100.00;153574.88;4983888;28;20469;-82
2023/01/06 06:27:24;;;;;;;1.93;1.67;;;;;;;8.62;100.00;153572.28;4982181;28;20447;-81
2023/01/06 06:30:10;;;;;;;4.50;2.50;;;;;;;8.67;100.00;153586.50;4981611;28;20481;-82
2023/01/06 06:32:56;;;;;;;2.17;1.53;;;;;;;8.62;100.00;153572.28;4982467;28;20440;-81
2023/01/06 06:35:41;;;;;;;1.77;1.53;;;;;;;8.62;100.00;153572.28;4980613;28;20626;-81
2023/01/06 06:38:27;;;;;;;3.10;2.07;;;;;;;8.58;100.00;153564.53;4984303;28;20446;-82
2023/01/06 06:41:13;;;;;;;2.43;1.90;;;;;;;8.56;100.00;153559.38;4980089;28;20464;-81
2023/01/06 06:44:00;;;;;;;2.60;1.93;;;;;;;8.57;100.00;153561.97;4982261;28;20553;-81
2023/01/06 06:46:45;;;;;;;2.20;1.90;;;;;;;8.64;100.00;153577.44;4995061;28;20441;-84
2023/01/06 06:49:30;;;;;;;2.30;1.90;;;;;;;8.58;100.00;153563.22;4995156;28;20470;-82
2023/01/06 06:52:16;;;;;;;2.83;2.13;;;;;;;8.53;100.00;153551.59;4980995;28;20488;-82
2023/01/06 06:55:01;;;;;;;2.43;1.90;;;;;;;8.54;100.00;153554.19;4986775;28;20463;-82
2023/01/06 06:57:48;;;;;;;3.43;1.60;;;;;;;8.52;100.00;153547.75;4982587;28;20526;-82
2023/01/06 07:00:33;;;;;;;5.03;2.00;;;;;;;8.52;100.00;153547.75;4986931;28;20453;-82
2023/01/06 07:03:19;;;;;;;2.90;2.00;;;;;;;8.53;100.00;153550.28;5002313;28;20445;-82
2023/01/06 07:06:07;;;;;;;1.93;1.50;;;;;;;8.57;100.00;153561.97;4991832;28;20461;-82
2023/01/06 07:08:53;;;;;;;2.73;1.63;;;;;;;8.58;100.00;153564.53;4991479;28;20465;-82
2023/01/06 07:11:38;;;;;;;2.20;1.73;;;;;;;8.60;100.00;153567.13;4993596;28;20507;-82
2023/01/06 07:14:25;;;;;;;1.73;1.40;;;;;;;8.63;100.00;153574.88;4991989;28;20507;-82
2023/01/06 07:17:10;;;;;;;2.17;1.77;;;;;;;8.63;100.00;153574.88;4986089;28;20449;-82
2023/01/06 07:19:56;;;;;;;2.70;1.33;;;;;;;8.69;100.00;153590.38;4989342;28;20465;-82
2023/01/06 07:22:41;;;;;;;2.10;1.57;;;;;;;8.70;100.00;153592.97;4982777;28;20448;-82
2023/01/06 07:25:27;;;;;;;1.80;1.50;;;;;;;8.74;100.00;153604.59;4996852;28;20609;-82
2023/01/06 07:28:12;;;;;;;1.90;1.50;;;;;;;8.73;100.00;153600.72;4986549;28;20455;-82
2023/01/06 07:30:59;;;;;;;2.00;1.60;;;;;;;8.75;100.00;153605.91;4984487;28;20903;-82
2023/01/06 07:33:44;;;;;;;1.80;1.60;;;;;;;8.78;100.00;153614.97;4986667;28;20469;-82
2023/01/06 07:36:33;;;;;;;2.10;1.70;;;;;;;8.81;100.00;153621.41;4983230;28;20445;-82
2023/01/06 07:39:18;;;;;;;3.10;1.70;;;;;;;8.83;100.00;153626.59;4984734;28;20445;-82
2023/01/06 07:42:04;;;;;;;1.77;1.30;;;;;;;8.85;100.00;153631.75;4985756;28;20496;-82
2023/01/06 07:44:49;;;;;;;3.43;2.07;;;;;;;8.86;100.00;153634.34;4985724;28;20435;-82
2023/01/06 07:47:39;;;;;;;2.60;1.63;;;;;;;8.86;100.00;153635.66;4984740;28;20455;-82
2023/01/06 07:50:27;;;;;;;2.20;1.77;;;;;;;8.88;100.00;153639.50;4996848;28;20502;-82
2023/01/06 07:53:13;;;;;;;2.07;1.50;;;;;;;8.90;100.00;153644.66;4985483;28;20447;-82
2023/01/06 07:55:58;;;;;;;2.20;1.70;;;;;;;8.92;100.00;153649.88;4994774;28;20519;-82
2023/01/06 07:58:43;;;;;;;2.53;2.00;;;;;;;8.93;100.00;153653.72;4996493;28;20793;-82
2023/01/06 08:01:29;;;;;;;1.80;1.47;;;;;;;8.93;100.00;153653.72;4983045;28;20497;-82
2023/01/06 08:04:15;;;;;;;1.87;1.20;;;;;;;8.94;100.00;153656.34;4986769;28;21094;-82
2023/01/06 08:07:01;;;;;;;1.80;1.40;;;;;;;8.96;100.00;153660.19;4984387;28;20559;-82
2023/01/06 08:09:46;;;;;;;1.40;1.13;;;;;;;8.98;100.00;153666.66;4982492;28;20466;-82
2023/01/06 08:12:32;;;;;;;2.33;1.47;;;;;;;9.00;100.00;153670.56;4984869;28;20449;-82
2023/01/06 08:15:20;;;;;;;1.83;1.53;;;;;;;9.03;100.00;153679.59;4980270;28;20447;-82
2023/01/06 08:18:06;;;;;;;2.10;1.40;;;;;;;9.07;100.00;153688.66;4984636;28;20837;-82
2023/01/06 08:20:53;;;;;;;2.90;1.80;;;;;;;9.08;100.00;153692.50;4984064;28;20486;-82
2023/01/06 08:23:38;;;;;;;2.00;1.60;;;;;;;9.11;100.00;153698.97;4983006;28;20984;-84
2023/01/06 08:26:24;;;;;;;2.03;1.83;;;;;;;9.10;100.00;153697.72;4985073;28;20511;-82
2023/01/06 08:29:19;;;;;;;3.80;1.50;;;;;;;9.10;100.00;153696.41;4984694;28;20834;-82
2023/01/06 08:32:05;;;;;;;1.93;1.60;;;;;;;9.09;100.00;153695.13;4982530;28;20462;-82
2023/01/06 08:34:54;;;;;;;1.97;1.57;;;;;;;9.09;100.00;153693.81;4985135;28;20486;-81
2023/01/06 08:37:41;;;;;;;2.67;2.33;;;;;;;9.09;100.00;153693.81;4996485;28;20537;-82
2023/01/06 08:40:27;;;;;;;2.70;2.20;;;;;;;9.08;100.00;153691.25;4987027;28;20537;-81
2023/01/06 08:43:12;;;;;;;2.67;1.97;;;;;;;9.09;100.00;153693.81;4986552;28;20953;-81
2023/01/06 08:46:00;;;;;;;3.50;2.17;;;;;;;9.08;100.00;153691.25;4991191;28;20444;-82
2023/01/06 08:48:46;;;;;;;2.53;1.90;;;;;;;9.11;100.00;153698.97;4995972;28;20863;-82
2023/01/06 08:51:31;;;;;;;2.00;1.50;;;;;;;9.14;100.00;153708.03;4986648;28;20546;-82
2023/01/06 08:54:18;;;;;;;2.20;1.73;;;;;;;9.16;100.00;153711.91;4992177;28;20455;-82
2023/01/06 08:57:04;;;;;;;2.07;1.57;;;;;;;9.18;100.00;153718.41;4984085;28;20463;-82
2023/01/06 08:59:49;;;;;;;2.73;2.30;;;;;;;9.21;100.00;153724.88;4985158;28;20434;-82
2023/01/06 09:02:34;;;;;;;1.53;1.37;;;;;;;9.23;100.00;153730.03;4984744;28;22367;-82
2023/01/06 09:05:20;;;;;;;1.97;1.33;;;;;;;9.25;100.00;153735.22;4983281;28;20502;-82
2023/01/06 09:08:05;;;;;;;2.20;1.33;;;;;;;9.25;100.00;153735.22;4999151;28;20451;-82
2023/01/06 09:10:52;;;;;;;1.40;1.00;;;;;;;9.23;100.00;153730.03;4990970;28;20439;-82
2023/01/06 09:13:37;;;;;;;2.53;1.90;;;;;;;9.25;100.00;153735.22;4987188;28;20533;-82
2023/01/06 09:16:23;;;;;;;2.90;2.20;;;;;;;9.25;100.00;153735.22;4982073;28;20525;-82
2023/01/06 09:19:09;;;;;;;3.07;2.30;;;;;;;9.24;100.00;153732.59;4983501;28;20447;-83
2023/01/06 09:21:55;;;;;;;1.53;1.27;;;;;;;9.22;100.00;153726.13;4982502;28;20446;-83
2023/01/06 09:24:40;;;;;;;1.30;1.20;;;;;;;9.20;100.00;153722.28;4985091;28;20469;-83
2023/01/06 09:27:27;;;;;;;1.97;1.00;;;;;;;9.17;100.00;153714.50;4982918;28;20473;-82
2023/01/06 09:30:13;;;;;;;1.40;0.90;;;;;;;9.17;100.00;153714.50;4983992;28;20536;-83
2023/01/06 09:32:58;;;;;;;1.37;0.90;;;;;;;9.18;100.00;153718.41;4985185;28;21708;-83
2023/01/06 09:35:44;;;;;;;1.60;1.30;;;;;;;9.22;100.00;153727.44;4995694;28;20533;-83
2023/01/06 09:38:30;;;;;;;1.20;0.90;;;;;;;9.21;100.00;153724.88;4984970;28;20964;-82
2023/01/06 09:41:57;;;;;;;1.13;0.87;;;;;;;9.27;100.00;153740.38;4983080;28;20451;-83
2023/01/06 09:44:47;;;;;;;1.30;0.87;;;;;;;9.34;100.00;153758.50;4984514;28;20958;-82
2023/01/06 09:47:36;;;;;;;1.40;0.90;;;;;;;9.37;100.00;153766.22;4983041;28;20462;-82
2023/01/06 09:50:29;;;;;;;1.60;1.00;;;;;;;9.42;100.00;153777.91;4982774;28;20985;-83
2023/01/06 09:53:19;;;;;;;1.40;0.80;;;;;;;9.41;100.00;153775.31;4985498;28;20462;-82
2023/01/06 09:56:07;;;;;;;1.37;1.00;;;;;;;9.47;100.00;153790.84;4985164;28;20451;-83
2023/01/06 09:58:56;;;;;;;2.10;1.07;;;;;;;9.52;100.00;153805.06;4987369;28;20537;-83
2023/01/06 10:01:47;;;;;;;1.23;0.70;;;;;;;9.62;100.00;153830.94;5000735;28;20462;-83
2023/01/06 10:04:32;;;;;;;1.43;0.63;;;;;;;9.70;100.00;153850.34;4983246;28;20510;-82
2023/01/06 10:07:21;;;;;;;1.50;0.73;;;;;;;9.80;100.00;153876.22;4980943;28;20454;-82
2023/01/06 10:10:16;;;;;;;1.10;0.60;;;;;;;9.86;100.00;153890.44;4980483;28;20458;-82
2023/01/06 10:13:09;;;;;;;1.10;0.70;;;;;;;9.88;100.00;153895.59;4982899;28;20491;-82
2023/01/06 10:16:00;;;;;;;0.80;0.40;;;;;;;9.91;100.00;153903.38;4993390;28;20454;-82
2023/01/06 10:18:53;;;;;;;1.00;0.60;;;;;;;9.87;100.00;153894.34;4983735;28;20438;-83
2023/01/06 10:21:42;;;;;;;1.17;0.80;;;;;;;9.90;100.00;153900.81;4979253;28;20666;-83
2023/01/06 10:24:35;;;;;;;1.20;0.60;;;;;;;9.78;100.00;153872.34;4982584;28;20469;-83
2023/01/06 10:27:27;;;;;;;1.63;0.87;;;;;;;9.82;100.00;153882.69;4982086;28;20847;-82
2023/01/06 10:30:18;;;;;;;1.20;0.80;;;;;;;9.90;100.00;153902.06;4982773;28;20869;-82
2023/01/06 10:33:03;;;;;;;1.67;1.00;;;;;;;9.99;100.00;153925.38;4985696;28;20478;-83
2023/01/06 10:35:51;;;;;;;1.57;1.23;;;;;;;10.01;100.00;153930.56;4983927;28;20469;-83
2023/01/06 10:38:38;;;;;;;2.00;1.13;;;;;;;10.02;100.00;153933.16;4997372;28;20457;-82
2023/01/06 10:41:27;;;;;;;1.50;1.20;;;;;;;10.10;100.00;153952.56;4982896;28;20455;-82
2023/01/06 10:44:13;;;;;;;3.97;1.40;;;;;;;10.15;100.00;153965.56;4980368;28;20467;-82
2023/01/06 10:46:59;;;;;;;1.63;1.20;;;;;;;10.22;100.00;153984.97;4980208;28;20451;-82
2023/01/06 10:49:45;;;;;;;2.10;1.20;;;;;;;10.29;100.00;154001.81;4984467;28;20523;-82
2023/01/06 10:52:32;;;;;;;1.80;1.30;;;;;;;10.31;100.00;154007.00;4982901;28;20545;-82
2023/01/06 10:55:30;;;;;;;1.40;0.90;;;;;;;10.34;100.00;154016.06;4983672;28;20464;-82
2023/01/06 10:58:34;;;;;;;1.50;0.97;;;;;;;10.37;100.00;154022.53;4981043;28;20560;-82
2023/01/06 11:01:23;;;;;;;2.00;1.30;;;;;;;10.38;100.00;154026.41;4981728;28;20554;-82
2023/01/06 11:04:10;;;;;;;1.63;1.03;;;;;;;10.42;100.00;154035.47;4980546;28;20457;-82
2023/01/06 11:06:58;;;;;;;1.30;0.60;;;;;;;10.42;100.00;154035.47;4980458;28;20454;-82
2023/01/06 11:09:45;;;;;;;0.97;0.40;;;;;;;10.37;100.00;154022.53;4982334;28;20530;-82
2023/01/06 11:12:31;;;;;;;1.37;0.50;;;;;;;10.42;100.00;154035.47;4980728;28;20945;-82
2023/01/06 11:15:20;;;;;;;1.17;0.47;;;;;;;10.43;100.00;154036.78;4984898;28;20446;-82
2023/01/06 11:18:18;;;;;;;1.10;0.60;;;;;;;10.40;100.00;154030.31;4989062;28;20502;-82
2023/01/06 11:21:06;;;;;;;0.93;0.40;;;;;;;10.44;100.00;154039.34;4998769;28;20447;-82
2023/01/06 11:24:08;;;;;;;1.93;0.83;;;;;;;10.43;100.00;154038.09;4995483;28;20586;-82
2023/01/06 11:26:56;;;;;;;1.13;0.60;;;;;;;10.55;100.00;154069.13;4995139;28;20448;-82
2023/01/06 11:29:41;;;;;;;0.80;0.40;;;;;;;10.55;100.00;154067.84;4981560;28;20453;-82
2023/01/06 11:32:29;;;;;;;1.37;0.70;;;;;;;10.54;100.00;154066.53;4979055;28;20804;-82
2023/01/06 11:35:19;;;;;;;1.27;0.70;;;;;;;10.50;100.00;154054.88;4983329;28;20482;-82
2023/01/06 11:38:05;;;;;;;0.80;0.40;;;;;;;10.49;100.00;154053.59;4978960;28;20846;-82
2023/01/06 11:40:51;;;;;;;1.23;0.60;;;;;;;10.46;100.00;154045.81;4980531;28;20789;-81
2023/01/06 11:43:42;;;;;;;0.80;0.40;;;;;;;10.46;100.00;154045.81;4982272;28;20456;-82
2023/01/06 11:46:27;;;;;;;0.97;0.57;;;;;;;10.44;100.00;154040.63;4982242;28;20447;-82
2023/01/06 11:49:14;;;;;;;0.93;0.40;;;;;;;10.45;100.00;154041.94;4996355;28;20442;-82
2023/01/06 11:52:01;;;;;;;0.90;0.40;;;;;;;10.46;100.00;154044.56;4995215;28;20450;-82
2023/01/06 11:54:57;;;;;;;0.90;0.50;;;;;;;10.47;100.00;154048.41;4983600;28;20485;-82
2023/01/06 11:57:48;;;;;;;1.10;0.50;;;;;;;10.50;100.00;154054.88;4983860;28;20443;-81
2023/01/06 12:00:42;;;;;;;1.00;0.60;;;;;;;10.51;100.00;154058.75;4984902;28;20442;-81
2023/01/06 12:03:31;;;;;;;0.97;0.40;;;;;;;10.50;100.00;154054.88;4985831;28;20509;-81
2023/01/06 12:06:24;;;;;;;0.70;0.33;;;;;;;10.51;100.00;154058.75;4995279;28;20460;-82
2023/01/06 12:09:15;;;;;;;1.40;0.60;;;;;;;10.57;100.00;154074.31;4985278;28;20468;-81
2023/01/06 12:12:06;;;;;;;0.90;0.40;;;;;;;10.52;100.00;154061.34;4984461;28;20454;-81
2023/01/06 12:14:51;;;;;;;1.80;0.50;;;;;;;10.52;100.00;154061.34;4985502;28;20437;-81
2023/01/06 12:17:42;;;;;;;1.20;0.57;;;;;;;10.53;100.00;154063.97;4988755;28;20465;-81
2023/01/06 12:20:29;;;;;;;1.10;0.50;;;;;;;10.55;100.00;154069.13;4987488;28;20447;-81
2023/01/06 12:23:19;;;;;;;0.90;0.40;;;;;;;10.56;100.00;154071.75;4985892;28;20463;-81
2023/01/06 12:26:10;;;;;;;0.80;0.37;;;;;;;10.56;100.00;154071.75;4985788;28;20526;-82
2023/01/06 12:28:56;;;;;;;0.90;0.43;;;;;;;10.60;100.00;154082.06;4985344;28;20542;-82
2023/01/06 12:31:44;;;;;;;1.00;0.50;;;;;;;10.60;100.00;154082.06;4984779;28;20988;-82
2023/01/06 12:34:35;;;;;;;0.87;0.30;;;;;;;10.60;100.00;154082.06;4999776;28;20486;-82
2023/01/06 12:37:27;;;;;;;1.00;0.40;;;;;;;10.58;100.00;154076.91;4991646;28;20969;-82
2023/01/06 12:40:18;;;;;;;0.73;0.33;;;;;;;10.65;100.00;154093.72;4989112;28;20939;-82
2023/01/06 12:43:12;;;;;;;1.23;0.83;;;;;;;10.62;100.00;154087.25;4988303;28;20453;-82
2023/01/06 12:46:01;;;;;;;2.27;0.50;;;;;;;10.65;100.00;154095.03;4982480;28;20550;-82
2023/01/06 12:48:50;;;;;;;1.13;0.50;;;;;;;10.61;100.00;154083.38;4998505;28;20871;-82
2023/01/06 12:51:39;;;;;;;1.30;0.60;;;;;;;10.61;100.00;154083.38;4984341;28;20566;-82
2023/01/06 12:54:28;;;;;;;1.60;1.00;;;;;;;10.62;100.00;154087.25;4996696;28;20517;-82
2023/01/06 12:57:25;;;;;;;1.10;0.80;;;;;;;10.63;100.00;154088.56;4983215;28;20798;-82
2023/01/06 13:00:22;;;;;;;2.17;1.40;;;;;;;10.65;100.00;154095.03;4983412;28;20831;-82
2023/01/06 13:03:24;;;;;;;2.80;2.23;;;;;;;10.61;100.00;154084.69;4984708;28;20521;-82
2023/01/06 13:06:20;;;;;;;2.10;1.20;;;;;;;10.61;100.00;154083.38;4988187;28;20450;-82
2023/01/06 13:09:16;;;;;;;2.13;1.17;;;;;;;10.64;100.00;154091.16;4989060;28;20442;-82